Terminal Aerodrome Forecast
Issued by NWS

Home | Current Version | Previous Version | Text Only | Print | Product List | Glossary On
Versions: 1 2 3 4 5 6 7 8 9 10 11 12 13 14 15
000
FTUS45 KABQ 241737
TAFTCC
TAF
KTCC 241737Z 2418/2518 27027G37KT P6SM FEW050
     FM242300 27015G25KT P6SM SKC
     FM250300 25012KT P6SM SKC
     FM251700 27020G30KT P6SM SKC=

USA.gov is the U.S. government's official web portal to all federal, state and local government web resources and services.